sensor_id;sensor_type;location;lat;lon;timestamp;temperature;humidity
73137;DHT22;67767;45.636;11.756;2023-05-07T00:01:37;19.50;74.90
73137;DHT22;67767;45.636;11.756;2023-05-07T00:04:03;19.50;74.20
73137;DHT22;67767;45.636;11.756;2023-05-07T00:06:29;19.60;74.50
73137;DHT22;67767;45.636;11.756;2023-05-07T00:08:56;19.60;74.80
73137;DHT22;67767;45.636;11.756;2023-05-07T00:11:23;19.50;75.30
73137;DHT22;67767;45.636;11.756;2023-05-07T00:13:48;19.40;75.30
73137;DHT22;67767;45.636;11.756;2023-05-07T00:16:14;19.40;75.50
73137;DHT22;67767;45.636;11.756;2023-05-07T00:18:40;19.30;76.00
73137;DHT22;67767;45.636;11.756;2023-05-07T00:21:05;19.40;76.00
73137;DHT22;67767;45.636;11.756;2023-05-07T00:23:31;19.20;76.40
73137;DHT22;67767;45.636;11.756;2023-05-07T00:25:57;19.20;76.40
73137;DHT22;67767;45.636;11.756;2023-05-07T00:28:22;19.20;76.50
73137;DHT22;67767;45.636;11.756;2023-05-07T00:30:48;19.20;76.40
73137;DHT22;67767;45.636;11.756;2023-05-07T00:33:14;19.30;76.50
73137;DHT22;67767;45.636;11.756;2023-05-07T00:35:39;19.10;76.70
73137;DHT22;67767;45.636;11.756;2023-05-07T00:38:05;19.20;77.00
73137;DHT22;67767;45.636;11.756;2023-05-07T00:40:30;19.20;76.70
73137;DHT22;67767;45.636;11.756;2023-05-07T00:42:56;19.20;76.60
73137;DHT22;67767;45.636;11.756;2023-05-07T00:45:26;19.30;75.90
73137;DHT22;67767;45.636;11.756;2023-05-07T00:47:55;19.20;76.10
73137;DHT22;67767;45.636;11.756;2023-05-07T00:50:22;19.30;76.00
73137;DHT22;67767;45.636;11.756;2023-05-07T00:52:48;19.20;76.00
73137;DHT22;67767;45.636;11.756;2023-05-07T00:55:13;19.30;75.80
73137;DHT22;67767;45.636;11.756;2023-05-07T00:57:41;19.40;75.90
73137;DHT22;67767;45.636;11.756;2023-05-07T01:00:08;19.30;76.00
73137;DHT22;67767;45.636;11.756;2023-05-07T01:02:35;19.40;76.00
73137;DHT22;67767;45.636;11.756;2023-05-07T01:05:03;19.30;75.90
73137;DHT22;67767;45.636;11.756;2023-05-07T01:07:31;19.30;76.00
73137;DHT22;67767;45.636;11.756;2023-05-07T01:09:57;19.30;75.90
73137;DHT22;67767;45.636;11.756;2023-05-07T01:12:24;19.30;75.70
73137;DHT22;67767;45.636;11.756;2023-05-07T01:14:50;19.30;76.80
73137;DHT22;67767;45.636;11.756;2023-05-07T01:17:17;19.20;76.80
73137;DHT22;67767;45.636;11.756;2023-05-07T01:19:42;19.10;77.00
73137;DHT22;67767;45.636;11.756;2023-05-07T01:22:10;19.10;77.10
73137;DHT22;67767;45.636;11.756;2023-05-07T01:24:37;18.90;77.60
73137;DHT22;67767;45.636;11.756;2023-05-07T01:27:03;18.90;77.60
73137;DHT22;67767;45.636;11.756;2023-05-07T01:29:29;19.00;78.00
73137;DHT22;67767;45.636;11.756;2023-05-07T01:31:57;19.00;77.40
73137;DHT22;67767;45.636;11.756;2023-05-07T01:34:25;18.80;78.20
73137;DHT22;67767;45.636;11.756;2023-05-07T01:36:54;18.90;78.10
73137;DHT22;67767;45.636;11.756;2023-05-07T01:39:23;18.90;78.20
73137;DHT22;67767;45.636;11.756;2023-05-07T01:41:50;18.80;78.30
73137;DHT22;67767;45.636;11.756;2023-05-07T01:44:16;18.80;78.30
73137;DHT22;67767;45.636;11.756;2023-05-07T01:46:43;18.90;78.20
73137;DHT22;67767;45.636;11.756;2023-05-07T01:49:10;18.90;78.10
73137;DHT22;67767;45.636;11.756;2023-05-07T01:51:36;18.90;77.90
73137;DHT22;67767;45.636;11.756;2023-05-07T01:54:02;18.90;78.10
73137;DHT22;67767;45.636;11.756;2023-05-07T01:56:27;18.80;78.20
73137;DHT22;67767;45.636;11.756;2023-05-07T01:58:53;18.70;78.40
73137;DHT22;67767;45.636;11.756;2023-05-07T02:01:19;18.70;78.60
73137;DHT22;67767;45.636;11.756;2023-05-07T02:03:44;18.60;79.00
73137;DHT22;67767;45.636;11.756;2023-05-07T02:06:10;18.80;78.70
73137;DHT22;67767;45.636;11.756;2023-05-07T02:08:36;18.90;78.50
73137;DHT22;67767;45.636;11.756;2023-05-07T02:11:01;18.80;78.30
73137;DHT22;67767;45.636;11.756;2023-05-07T02:13:33;18.90;78.20
73137;DHT22;67767;45.636;11.756;2023-05-07T02:16:00;18.80;78.20
73137;DHT22;67767;45.636;11.756;2023-05-07T02:18:26;18.70;78.70
73137;DHT22;67767;45.636;11.756;2023-05-07T02:20:52;18.70;78.90
73137;DHT22;67767;45.636;11.756;2023-05-07T02:23:17;18.60;78.50
73137;DHT22;67767;45.636;11.756;2023-05-07T02:25:43;18.80;78.40
73137;DHT22;67767;45.636;11.756;2023-05-07T02:28:09;18.80;78.60
73137;DHT22;67767;45.636;11.756;2023-05-07T02:30:35;18.80;78.60
73137;DHT22;67767;45.636;11.756;2023-05-07T02:33:00;18.70;78.90
73137;DHT22;67767;45.636;11.756;2023-05-07T02:35:26;18.80;78.40
73137;DHT22;67767;45.636;11.756;2023-05-07T02:37:51;18.70;78.50
73137;DHT22;67767;45.636;11.756;2023-05-07T02:40:17;18.80;78.30
73137;DHT22;67767;45.636;11.756;2023-05-07T02:42:43;18.80;78.30
73137;DHT22;67767;45.636;11.756;2023-05-07T02:45:09;18.70;78.50
73137;DHT22;67767;45.636;11.756;2023-05-07T02:47:35;18.70;79.00
73137;DHT22;67767;45.636;11.756;2023-05-07T02:50:01;18.80;79.00
73137;DHT22;67767;45.636;11.756;2023-05-07T02:52:26;18.50;79.40
73137;DHT22;67767;45.636;11.756;2023-05-07T02:54:52;18.20;80.40
73137;DHT22;67767;45.636;11.756;2023-05-07T02:57:18;18.30;80.20
73137;DHT22;67767;45.636;11.756;2023-05-07T02:59:43;18.40;79.80
73137;DHT22;67767;45.636;11.756;2023-05-07T03:02:09;18.40;79.80
73137;DHT22;67767;45.636;11.756;2023-05-07T03:04:35;18.30;79.80
73137;DHT22;67767;45.636;11.756;2023-05-07T03:07:01;18.40;79.60
73137;DHT22;67767;45.636;11.756;2023-05-07T03:09:26;18.40;79.40
73137;DHT22;67767;45.636;11.756;2023-05-07T03:11:52;18.30;80.20
73137;DHT22;67767;45.636;11.756;2023-05-07T03:14:18;18.10;82.00
73137;DHT22;67767;45.636;11.756;2023-05-07T03:16:43;18.10;82.20
73137;DHT22;67767;45.636;11.756;2023-05-07T03:19:09;18.00;82.10
73137;DHT22;67767;45.636;11.756;2023-05-07T03:21:35;18.10;82.00
73137;DHT22;67767;45.636;11.756;2023-05-07T03:24:00;18.20;80.70
73137;DHT22;67767;45.636;11.756;2023-05-07T03:26:26;18.20;80.70
73137;DHT22;67767;45.636;11.756;2023-05-07T03:28:52;18.30;80.40
73137;DHT22;67767;45.636;11.756;2023-05-07T03:31:18;18.30;80.20
73137;DHT22;67767;45.636;11.756;2023-05-07T03:33:54;18.30;80.20
73137;DHT22;67767;45.636;11.756;2023-05-07T03:36:21;18.20;80.20
73137;DHT22;67767;45.636;11.756;2023-05-07T03:38:48;18.20;80.40
73137;DHT22;67767;45.636;11.756;2023-05-07T03:41:14;18.10;81.60
73137;DHT22;67767;45.636;11.756;2023-05-07T03:43:39;18.10;81.70
73137;DHT22;67767;45.636;11.756;2023-05-07T03:46:05;18.00;82.30
73137;DHT22;67767;45.636;11.756;2023-05-07T03:48:31;17.90;82.40
73137;DHT22;67767;45.636;11.756;2023-05-07T03:50:59;17.90;82.70
73137;DHT22;67767;45.636;11.756;2023-05-07T03:53:25;17.90;82.30
73137;DHT22;67767;45.636;11.756;2023-05-07T03:55:51;18.00;82.60
73137;DHT22;67767;45.636;11.756;2023-05-07T03:58:16;18.00;82.50
73137;DHT22;67767;45.636;11.756;2023-05-07T04:00:42;18.00;82.20
73137;DHT22;67767;45.636;11.756;2023-05-07T04:03:08;18.00;82.40
73137;DHT22;67767;45.636;11.756;2023-05-07T04:05:34;18.00;82.40
73137;DHT22;67767;45.636;11.756;2023-05-07T04:08:00;18.00;82.90
73137;DHT22;67767;45.636;11.756;2023-05-07T04:10:26;18.00;82.90
73137;DHT22;67767;45.636;11.756;2023-05-07T04:12:53;18.00;82.60
73137;DHT22;67767;45.636;11.756;2023-05-07T04:15:19;18.00;82.60
73137;DHT22;67767;45.636;11.756;2023-05-07T04:17:45;17.90;82.80
73137;DHT22;67767;45.636;11.756;2023-05-07T04:20:16;17.80;82.80
73137;DHT22;67767;45.636;11.756;2023-05-07T04:22:42;17.80;83.10
73137;DHT22;67767;45.636;11.756;2023-05-07T04:25:08;17.90;82.50
73137;DHT22;67767;45.636;11.756;2023-05-07T04:27:39;17.90;82.40
73137;DHT22;67767;45.636;11.756;2023-05-07T04:30:05;18.00;82.40
73137;DHT22;67767;45.636;11.756;2023-05-07T04:32:32;18.00;82.70
73137;DHT22;67767;45.636;11.756;2023-05-07T04:34:57;18.00;82.90
73137;DHT22;67767;45.636;11.756;2023-05-07T04:37:23;18.00;82.70
73137;DHT22;67767;45.636;11.756;2023-05-07T04:39:48;18.10;82.80
73137;DHT22;67767;45.636;11.756;2023-05-07T04:42:15;18.10;82.60
73137;DHT22;67767;45.636;11.756;2023-05-07T04:44:41;18.20;81.30
73137;DHT22;67767;45.636;11.756;2023-05-07T04:47:07;18.30;80.90
73137;DHT22;67767;45.636;11.756;2023-05-07T04:49:32;18.20;81.00
73137;DHT22;67767;45.636;11.756;2023-05-07T04:51:58;18.20;80.90
73137;DHT22;67767;45.636;11.756;2023-05-07T04:54:24;18.20;81.00
73137;DHT22;67767;45.636;11.756;2023-05-07T04:56:50;18.30;80.80
73137;DHT22;67767;45.636;11.756;2023-05-07T04:59:16;18.20;80.60
73137;DHT22;67767;45.636;11.756;2023-05-07T05:01:41;18.20;80.50
73137;DHT22;67767;45.636;11.756;2023-05-07T05:04:07;18.30;80.40
73137;DHT22;67767;45.636;11.756;2023-05-07T05:06:33;18.30;80.30
73137;DHT22;67767;45.636;11.756;2023-05-07T05:08:58;18.30;80.10
73137;DHT22;67767;45.636;11.756;2023-05-07T05:11:24;18.40;80.10
73137;DHT22;67767;45.636;11.756;2023-05-07T05:13:50;18.50;80.00
73137;DHT22;67767;45.636;11.756;2023-05-07T05:16:15;18.50;80.30
73137;DHT22;67767;45.636;11.756;2023-05-07T05:18:41;18.50;80.60
73137;DHT22;67767;45.636;11.756;2023-05-07T05:21:07;18.50;80.60
73137;DHT22;67767;45.636;11.756;2023-05-07T05:23:32;18.40;80.50
73137;DHT22;67767;45.636;11.756;2023-05-07T05:25:58;18.30;80.60
73137;DHT22;67767;45.636;11.756;2023-05-07T05:28:24;18.40;80.30
73137;DHT22;67767;45.636;11.756;2023-05-07T05:30:50;18.30;80.50
73137;DHT22;67767;45.636;11.756;2023-05-07T05:33:16;18.30;80.50
73137;DHT22;67767;45.636;11.756;2023-05-07T05:35:42;18.30;80.30
73137;DHT22;67767;45.636;11.756;2023-05-07T05:38:07;18.30;80.20
73137;DHT22;67767;45.636;11.756;2023-05-07T05:40:33;18.50;79.90
73137;DHT22;67767;45.636;11.756;2023-05-07T05:42:59;18.60;79.50
73137;DHT22;67767;45.636;11.756;2023-05-07T05:45:25;18.60;79.70
73137;DHT22;67767;45.636;11.756;2023-05-07T05:47:51;18.70;80.00
73137;DHT22;67767;45.636;11.756;2023-05-07T05:50:17;18.90;79.40
73137;DHT22;67767;45.636;11.756;2023-05-07T05:52:42;18.90;78.80
73137;DHT22;67767;45.636;11.756;2023-05-07T05:55:08;19.00;79.00
73137;DHT22;67767;45.636;11.756;2023-05-07T05:57:34;19.30;78.70
73137;DHT22;67767;45.636;11.756;2023-05-07T06:00:01;19.50;77.80
73137;DHT22;67767;45.636;11.756;2023-05-07T06:02:28;19.50;77.80
73137;DHT22;67767;45.636;11.756;2023-05-07T06:04:53;19.60;77.70
73137;DHT22;67767;45.636;11.756;2023-05-07T06:07:19;19.90;77.40
73137;DHT22;67767;45.636;11.756;2023-05-07T06:09:45;20.30;76.90
73137;DHT22;67767;45.636;11.756;2023-05-07T06:12:11;20.50;76.60
73137;DHT22;67767;45.636;11.756;2023-05-07T06:14:36;20.50;76.50
73137;DHT22;67767;45.636;11.756;2023-05-07T06:17:02;20.80;76.40
73137;DHT22;67767;45.636;11.756;2023-05-07T06:19:28;21.10;74.90
73137;DHT22;67767;45.636;11.756;2023-05-07T06:21:54;21.20;74.30
73137;DHT22;67767;45.636;11.756;2023-05-07T06:24:21;21.40;74.30
73137;DHT22;67767;45.636;11.756;2023-05-07T06:26:47;21.30;73.60
73137;DHT22;67767;45.636;11.756;2023-05-07T06:29:13;21.30;73.70
73137;DHT22;67767;45.636;11.756;2023-05-07T06:31:39;21.50;73.80
73137;DHT22;67767;45.636;11.756;2023-05-07T06:34:05;21.70;73.40
73137;DHT22;67767;45.636;11.756;2023-05-07T06:36:30;21.90;73.30
73137;DHT22;67767;45.636;11.756;2023-05-07T06:38:56;22.00;73.00
73137;DHT22;67767;45.636;11.756;2023-05-07T06:41:22;22.00;72.90
73137;DHT22;67767;45.636;11.756;2023-05-07T06:43:48;22.20;72.70
73137;DHT22;67767;45.636;11.756;2023-05-07T06:46:13;22.30;72.50
73137;DHT22;67767;45.636;11.756;2023-05-07T06:48:39;22.20;72.20
73137;DHT22;67767;45.636;11.756;2023-05-07T06:51:04;22.50;72.00
73137;DHT22;67767;45.636;11.756;2023-05-07T06:53:30;22.50;70.40
73137;DHT22;67767;45.636;11.756;2023-05-07T06:55:56;22.80;70.90
73137;DHT22;67767;45.636;11.756;2023-05-07T06:58:22;22.90;71.00
73137;DHT22;67767;45.636;11.756;2023-05-07T07:00:48;23.10;70.10
73137;DHT22;67767;45.636;11.756;2023-05-07T07:03:14;23.00;69.80
73137;DHT22;67767;45.636;11.756;2023-05-07T07:05:43;23.20;69.30
73137;DHT22;67767;45.636;11.756;2023-05-07T07:08:09;23.20;68.80
73137;DHT22;67767;45.636;11.756;2023-05-07T07:10:35;23.40;68.70
73137;DHT22;67767;45.636;11.756;2023-05-07T07:13:00;23.80;66.00
73137;DHT22;67767;45.636;11.756;2023-05-07T07:15:26;24.00;61.20
73137;DHT22;67767;45.636;11.756;2023-05-07T07:17:52;24.00;61.60
73137;DHT22;67767;45.636;11.756;2023-05-07T07:20:18;24.10;59.90
73137;DHT22;67767;45.636;11.756;2023-05-07T07:22:43;24.30;60.50
73137;DHT22;67767;45.636;11.756;2023-05-07T07:25:09;24.50;59.30
73137;DHT22;67767;45.636;11.756;2023-05-07T07:27:36;24.80;58.40
73137;DHT22;67767;45.636;11.756;2023-05-07T07:30:02;24.90;59.80
73137;DHT22;67767;45.636;11.756;2023-05-07T07:32:28;24.90;59.50
73137;DHT22;67767;45.636;11.756;2023-05-07T07:34:54;24.70;58.80
73137;DHT22;67767;45.636;11.756;2023-05-07T07:37:19;24.80;58.80
73137;DHT22;67767;45.636;11.756;2023-05-07T07:39:45;24.50;60.90
73137;DHT22;67767;45.636;11.756;2023-05-07T07:42:11;25.00;58.90
73137;DHT22;67767;45.636;11.756;2023-05-07T07:44:36;25.00;57.40
73137;DHT22;67767;45.636;11.756;2023-05-07T07:47:02;24.70;58.60
73137;DHT22;67767;45.636;11.756;2023-05-07T07:49:28;25.30;57.60
73137;DHT22;67767;45.636;11.756;2023-05-07T07:51:53;25.30;55.00
73137;DHT22;67767;45.636;11.756;2023-05-07T07:54:19;25.50;54.50
73137;DHT22;67767;45.636;11.756;2023-05-07T07:56:45;25.60;53.90
73137;DHT22;67767;45.636;11.756;2023-05-07T07:59:11;25.70;53.10
73137;DHT22;67767;45.636;11.756;2023-05-07T08:01:36;25.60;52.80
73137;DHT22;67767;45.636;11.756;2023-05-07T08:04:02;25.60;52.80
73137;DHT22;67767;45.636;11.756;2023-05-07T08:06:31;25.60;54.30
73137;DHT22;67767;45.636;11.756;2023-05-07T08:08:56;25.50;54.40
73137;DHT22;67767;45.636;11.756;2023-05-07T08:11:22;25.60;54.30
73137;DHT22;67767;45.636;11.756;2023-05-07T08:13:48;25.40;52.80
73137;DHT22;67767;45.636;11.756;2023-05-07T08:16:14;25.50;54.40
73137;DHT22;67767;45.636;11.756;2023-05-07T08:18:39;25.40;52.80
73137;DHT22;67767;45.636;11.756;2023-05-07T08:21:05;25.60;53.90
73137;DHT22;67767;45.636;11.756;2023-05-07T08:23:31;25.60;53.40
73137;DHT22;67767;45.636;11.756;2023-05-07T08:25:57;25.40;53.70
73137;DHT22;67767;45.636;11.756;2023-05-07T08:28:22;25.30;54.00
73137;DHT22;67767;45.636;11.756;2023-05-07T08:30:50;25.30;53.50
73137;DHT22;67767;45.636;11.756;2023-05-07T08:33:16;25.30;53.90
73137;DHT22;67767;45.636;11.756;2023-05-07T08:35:41;25.30;54.50
73137;DHT22;67767;45.636;11.756;2023-05-07T08:38:07;25.50;55.00
73137;DHT22;67767;45.636;11.756;2023-05-07T08:40:37;25.30;54.50
73137;DHT22;67767;45.636;11.756;2023-05-07T08:43:06;25.40;54.50
73137;DHT22;67767;45.636;11.756;2023-05-07T08:45:33;25.50;54.70
73137;DHT22;67767;45.636;11.756;2023-05-07T08:48:02;25.60;51.70
73137;DHT22;67767;45.636;11.756;2023-05-07T08:50:29;25.70;53.30
73137;DHT22;67767;45.636;11.756;2023-05-07T08:52:55;25.80;50.00
73137;DHT22;67767;45.636;11.756;2023-05-07T08:55:22;26.00;52.40
73137;DHT22;67767;45.636;11.756;2023-05-07T08:57:49;26.00;51.40
73137;DHT22;67767;45.636;11.756;2023-05-07T09:00:15;26.10;51.30
73137;DHT22;67767;45.636;11.756;2023-05-07T09:02:41;26.10;46.90
73137;DHT22;67767;45.636;11.756;2023-05-07T09:05:08;26.30;46.80
73137;DHT22;67767;45.636;11.756;2023-05-07T09:07:34;26.40;44.80
73137;DHT22;67767;45.636;11.756;2023-05-07T09:10:04;26.50;44.10
73137;DHT22;67767;45.636;11.756;2023-05-07T09:12:30;26.30;48.80
73137;DHT22;67767;45.636;11.756;2023-05-07T09:14:57;26.50;49.10
73137;DHT22;67767;45.636;11.756;2023-05-07T09:17:23;26.30;50.80
73137;DHT22;67767;45.636;11.756;2023-05-07T09:19:49;26.10;51.10
73137;DHT22;67767;45.636;11.756;2023-05-07T09:22:15;26.00;52.00
73137;DHT22;67767;45.636;11.756;2023-05-07T09:24:50;26.10;50.40
73137;DHT22;67767;45.636;11.756;2023-05-07T09:27:16;25.90;51.10
73137;DHT22;67767;45.636;11.756;2023-05-07T09:29:43;26.10;49.50
73137;DHT22;67767;45.636;11.756;2023-05-07T09:32:09;26.40;49.00
73137;DHT22;67767;45.636;11.756;2023-05-07T09:34:35;26.50;48.30
73137;DHT22;67767;45.636;11.756;2023-05-07T09:37:02;26.50;48.80
73137;DHT22;67767;45.636;11.756;2023-05-07T09:39:44;26.60;47.50
73137;DHT22;67767;45.636;11.756;2023-05-07T09:42:11;26.60;48.70
73137;DHT22;67767;45.636;11.756;2023-05-07T09:44:37;26.80;47.40
73137;DHT22;67767;45.636;11.756;2023-05-07T09:47:07;26.60;46.90
73137;DHT22;67767;45.636;11.756;2023-05-07T09:49:37;26.70;47.70
73137;DHT22;67767;45.636;11.756;2023-05-07T09:52:04;26.80;47.60
73137;DHT22;67767;45.636;11.756;2023-05-07T09:54:37;26.70;46.80
73137;DHT22;67767;45.636;11.756;2023-05-07T09:57:05;26.90;48.00
73137;DHT22;67767;45.636;11.756;2023-05-07T09:59:32;27.10;48.80
73137;DHT22;67767;45.636;11.756;2023-05-07T10:02:01;27.20;48.40
73137;DHT22;67767;45.636;11.756;2023-05-07T10:04:28;27.10;45.80
73137;DHT22;67767;45.636;11.756;2023-05-07T10:06:55;27.40;45.20
73137;DHT22;67767;45.636;11.756;2023-05-07T10:09:21;27.50;45.50
73137;DHT22;67767;45.636;11.756;2023-05-07T10:11:49;27.50;45.30
73137;DHT22;67767;45.636;11.756;2023-05-07T10:14:15;27.50;46.30
73137;DHT22;67767;45.636;11.756;2023-05-07T10:16:41;27.30;46.70
73137;DHT22;67767;45.636;11.756;2023-05-07T10:19:08;27.30;47.30
73137;DHT22;67767;45.636;11.756;2023-05-07T10:21:37;27.60;46.90
73137;DHT22;67767;45.636;11.756;2023-05-07T10:24:07;27.70;46.70
73137;DHT22;67767;45.636;11.756;2023-05-07T10:26:42;27.70;45.70
73137;DHT22;67767;45.636;11.756;2023-05-07T10:29:16;27.40;47.20
73137;DHT22;67767;45.636;11.756;2023-05-07T10:31:58;27.00;48.00
73137;DHT22;67767;45.636;11.756;2023-05-07T10:34:29;27.00;48.20
73137;DHT22;67767;45.636;11.756;2023-05-07T10:36:58;27.60;48.20
73137;DHT22;67767;45.636;11.756;2023-05-07T10:39:24;27.90;46.40
73137;DHT22;67767;45.636;11.756;2023-05-07T10:41:50;28.30;47.20
73137;DHT22;67767;45.636;11.756;2023-05-07T10:44:31;28.60;46.10
73137;DHT22;67767;45.636;11.756;2023-05-07T10:47:09;28.70;45.40
73137;DHT22;67767;45.636;11.756;2023-05-07T10:50:28;28.60;45.40
73137;DHT22;67767;45.636;11.756;2023-05-07T10:55:42;28.10;46.30
73137;DHT22;67767;45.636;11.756;2023-05-07T10:58:23;28.50;46.60
73137;DHT22;67767;45.636;11.756;2023-05-07T11:00:49;27.80;46.30
73137;DHT22;67767;45.636;11.756;2023-05-07T11:03:15;28.30;45.10
73137;DHT22;67767;45.636;11.756;2023-05-07T11:05:42;28.30;45.00
73137;DHT22;67767;45.636;11.756;2023-05-07T11:08:08;28.40;44.60
73137;DHT22;67767;45.636;11.756;2023-05-07T11:10:56;28.50;45.60
73137;DHT22;67767;45.636;11.756;2023-05-07T11:13:41;27.80;46.60
73137;DHT22;67767;45.636;11.756;2023-05-07T11:16:24;28.10;46.40
73137;DHT22;67767;45.636;11.756;2023-05-07T11:18:51;28.30;46.50
73137;DHT22;67767;45.636;11.756;2023-05-07T11:21:47;28.60;46.20
73137;DHT22;67767;45.636;11.756;2023-05-07T11:24:13;28.30;47.00
73137;DHT22;67767;45.636;11.756;2023-05-07T11:26:50;28.70;46.20
73137;DHT22;67767;45.636;11.756;2023-05-07T11:29:18;28.50;46.40
73137;DHT22;67767;45.636;11.756;2023-05-07T11:31:48;28.00;47.70
73137;DHT22;67767;45.636;11.756;2023-05-07T11:34:15;28.10;47.70
73137;DHT22;67767;45.636;11.756;2023-05-07T11:36:46;28.50;46.60
73137;DHT22;67767;45.636;11.756;2023-05-07T11:39:28;29.10;47.10
73137;DHT22;67767;45.636;11.756;2023-05-07T11:41:55;28.40;46.80
73137;DHT22;67767;45.636;11.756;2023-05-07T11:44:20;28.80;46.50
73137;DHT22;67767;45.636;11.756;2023-05-07T11:46:46;28.90;46.60
73137;DHT22;67767;45.636;11.756;2023-05-07T11:49:12;29.00;46.10
73137;DHT22;67767;45.636;11.756;2023-05-07T11:51:38;29.40;45.00
73137;DHT22;67767;45.636;11.756;2023-05-07T11:54:05;30.20;43.50
73137;DHT22;67767;45.636;11.756;2023-05-07T11:56:34;30.20;43.20
73137;DHT22;67767;45.636;11.756;2023-05-07T11:59:00;30.60;42.10
73137;DHT22;67767;45.636;11.756;2023-05-07T12:01:26;30.70;42.20
73137;DHT22;67767;45.636;11.756;2023-05-07T12:03:52;30.70;42.90
73137;DHT22;67767;45.636;11.756;2023-05-07T12:06:18;31.40;41.00
73137;DHT22;67767;45.636;11.756;2023-05-07T12:08:45;31.60;40.80
73137;DHT22;67767;45.636;11.756;2023-05-07T12:11:16;32.10;39.50
73137;DHT22;67767;45.636;11.756;2023-05-07T12:13:43;32.10;38.60
73137;DHT22;67767;45.636;11.756;2023-05-07T12:16:09;32.20;38.60
73137;DHT22;67767;45.636;11.756;2023-05-07T12:18:36;32.60;39.10
73137;DHT22;67767;45.636;11.756;2023-05-07T12:21:02;32.60;38.50
73137;DHT22;67767;45.636;11.756;2023-05-07T12:23:29;32.70;37.70
73137;DHT22;67767;45.636;11.756;2023-05-07T12:25:55;32.30;37.90
73137;DHT22;67767;45.636;11.756;2023-05-07T12:28:21;32.60;37.60
73137;DHT22;67767;45.636;11.756;2023-05-07T12:30:48;31.80;39.50
73137;DHT22;67767;45.636;11.756;2023-05-07T12:33:18;32.80;37.70
73137;DHT22;67767;45.636;11.756;2023-05-07T12:35:44;32.50;37.90
73137;DHT22;67767;45.636;11.756;2023-05-07T12:38:14;31.90;39.00
73137;DHT22;67767;45.636;11.756;2023-05-07T12:40:42;31.80;38.90
73137;DHT22;67767;45.636;11.756;2023-05-07T12:43:15;32.20;38.00
73137;DHT22;67767;45.636;11.756;2023-05-07T12:45:42;32.40;37.50
73137;DHT22;67767;45.636;11.756;2023-05-07T12:48:10;32.10;38.10
73137;DHT22;67767;45.636;11.756;2023-05-07T12:50:36;32.10;37.80
73137;DHT22;67767;45.636;11.756;2023-05-07T12:53:06;31.40;39.70
73137;DHT22;67767;45.636;11.756;2023-05-07T12:55:44;31.80;38.80
73137;DHT22;67767;45.636;11.756;2023-05-07T12:58:17;32.50;37.40
73137;DHT22;67767;45.636;11.756;2023-05-07T13:00:43;32.30;38.00
73137;DHT22;67767;45.636;11.756;2023-05-07T13:03:09;31.70;39.10
73137;DHT22;67767;45.636;11.756;2023-05-07T13:05:35;32.10;36.80
73137;DHT22;67767;45.636;11.756;2023-05-07T13:08:01;31.90;37.70
73137;DHT22;67767;45.636;11.756;2023-05-07T13:10:27;32.80;36.10
73137;DHT22;67767;45.636;11.756;2023-05-07T13:12:53;33.70;35.70
73137;DHT22;67767;45.636;11.756;2023-05-07T13:15:19;33.80;35.00
73137;DHT22;67767;45.636;11.756;2023-05-07T13:17:45;33.60;34.90
73137;DHT22;67767;45.636;11.756;2023-05-07T13:20:11;33.90;35.20
73137;DHT22;67767;45.636;11.756;2023-05-07T13:22:38;32.10;36.50
73137;DHT22;67767;45.636;11.756;2023-05-07T13:25:04;32.60;37.10
73137;DHT22;67767;45.636;11.756;2023-05-07T13:27:30;33.00;35.80
73137;DHT22;67767;45.636;11.756;2023-05-07T13:29:56;31.70;37.80
73137;DHT22;67767;45.636;11.756;2023-05-07T13:32:22;32.10;37.10
73137;DHT22;67767;45.636;11.756;2023-05-07T13:34:48;33.30;35.20
73137;DHT22;67767;45.636;11.756;2023-05-07T13:37:13;33.30;35.20
73137;DHT22;67767;45.636;11.756;2023-05-07T13:39:39;33.80;35.40
73137;DHT22;67767;45.636;11.756;2023-05-07T13:42:06;34.10;34.20
73137;DHT22;67767;45.636;11.756;2023-05-07T13:44:32;34.60;32.70
73137;DHT22;67767;45.636;11.756;2023-05-07T13:46:57;34.60;33.70
73137;DHT22;67767;45.636;11.756;2023-05-07T13:49:23;34.80;33.70
73137;DHT22;67767;45.636;11.756;2023-05-07T13:51:49;34.00;35.10
73137;DHT22;67767;45.636;11.756;2023-05-07T13:54:15;34.20;34.90
73137;DHT22;67767;45.636;11.756;2023-05-07T13:56:41;33.90;35.90
73137;DHT22;67767;45.636;11.756;2023-05-07T13:59:07;34.00;34.60
73137;DHT22;67767;45.636;11.756;2023-05-07T14:01:32;33.50;34.70
73137;DHT22;67767;45.636;11.756;2023-05-07T14:03:58;32.90;35.70
73137;DHT22;67767;45.636;11.756;2023-05-07T14:06:25;33.60;35.10
73137;DHT22;67767;45.636;11.756;2023-05-07T14:08:50;33.40;35.80
73137;DHT22;67767;45.636;11.756;2023-05-07T14:11:16;33.00;36.60
73137;DHT22;67767;45.636;11.756;2023-05-07T14:13:42;32.40;38.60
73137;DHT22;67767;45.636;11.756;2023-05-07T14:16:07;33.00;36.10
73137;DHT22;67767;45.636;11.756;2023-05-07T14:18:33;33.70;35.90
73137;DHT22;67767;45.636;11.756;2023-05-07T14:21:00;33.10;37.30
73137;DHT22;67767;45.636;11.756;2023-05-07T14:23:26;33.20;37.00
73137;DHT22;67767;45.636;11.756;2023-05-07T14:25:52;34.00;35.40
73137;DHT22;67767;45.636;11.756;2023-05-07T14:28:19;34.50;34.10
73137;DHT22;67767;45.636;11.756;2023-05-07T14:30:44;34.80;34.10
73137;DHT22;67767;45.636;11.756;2023-05-07T14:33:10;35.10;33.70
73137;DHT22;67767;45.636;11.756;2023-05-07T14:35:36;34.50;35.00
73137;DHT22;67767;45.636;11.756;2023-05-07T14:38:01;33.80;35.20
73137;DHT22;67767;45.636;11.756;2023-05-07T14:40:27;32.10;36.60
73137;DHT22;67767;45.636;11.756;2023-05-07T14:42:53;32.50;36.10
73137;DHT22;67767;45.636;11.756;2023-05-07T14:45:20;32.60;35.20
73137;DHT22;67767;45.636;11.756;2023-05-07T14:47:46;32.00;37.10
73137;DHT22;67767;45.636;11.756;2023-05-07T14:50:12;32.70;36.00
73137;DHT22;67767;45.636;11.756;2023-05-07T14:52:37;32.60;36.80
73137;DHT22;67767;45.636;11.756;2023-05-07T14:55:04;32.00;37.40
73137;DHT22;67767;45.636;11.756;2023-05-07T14:57:30;32.20;38.20
73137;DHT22;67767;45.636;11.756;2023-05-07T14:59:58;32.80;36.50
73137;DHT22;67767;45.636;11.756;2023-05-07T15:02:23;33.40;35.80
73137;DHT22;67767;45.636;11.756;2023-05-07T15:04:49;34.10;34.60
73137;DHT22;67767;45.636;11.756;2023-05-07T15:07:15;33.30;34.40
73137;DHT22;67767;45.636;11.756;2023-05-07T15:09:42;32.40;35.90
73137;DHT22;67767;45.636;11.756;2023-05-07T15:12:08;31.80;37.10
73137;DHT22;67767;45.636;11.756;2023-05-07T15:14:34;31.10;39.30
73137;DHT22;67767;45.636;11.756;2023-05-07T15:17:00;31.30;38.20